Lexington, Ohio
Current Conditions -  °F | °C
As of 7:52 PM on Monday 22 Dec 2014 (Local Time) from KMFD Reporting Station
Overcast Overcast  
Wind Chill: 32°   Ceiling: 9000
Heat Index: 39°   Visibility: 10mi
Dew Point: 33°   Wind: 10mph
Humidity: 79%   Direction: 100°E
Pressure: 29.87"   Gusts: NA
Location:  40.6648°N, 82.6104°W
Report Text: KMFD 230052Z 10009KT 10SM OVC090 04/01 A2987 RMK AO2 SLP126 T00390006
Loading
Personal Weather Stations






























Interactive Weather Map New forecast layout! Learn more

10-Day Weather Forecast

Advertisements
Track Severe Weather on mobile